Portada
METAR-TAF:

METAR-TAF

Aeroports :

Chișinău, Moldàvia

latitud: 46-55-40N, longitud: 028-55-51E, altitud: 122 m

Observació

L'informe es va fer fa 31 minuts, a les 04:00 UTC
Vent 4 kt del Oest, variant entre Oest/Sud-Oest i Oest/Nord-Oest
Temperatura 1°C
Humitat 80%
Pressió 1020 hPa
Visibilitat 10 km o més
sense núvols per sota de 1500 mi sense presència de cumulonimbus.

METAR: LUKK 230400Z 26004KT 240V300 CAVOK 01/M02 Q1020 R26/D NOSIG

Hora: 06:31 (04:31 UTC)

Pronòstic

L'informe es va fer fa 5 hores i 11 minuts, a les 23:20 UTC
Pronòstic vàlid del 23 a les 00 UTC al 23 a les 24 UTC
Vent 8 kt del Sud-Oest
Visibilitat 10 km o més
sense núvols per sota de 1500 mi sense presència de cumulonimbus.
Evolucionant progressivament
l' 23 a les 20 UTC al 23 a les 22 UTC
Vent 16 kt del Sud-Oest

TAF: LUKK 222320Z 2300/2324 22008KT CAVOK BECMG 2320/2322 23016KT

Observacions i pronòstics meteorològics de més de 4000 aeroports (METAR i TAF).

Les estacions disponibles són els punts grocs i vermells al mapa.

Posi el ratolí al punt desitjat per veure el nom de l'estació.

Feu clic per veure les observacions i els pronòstics meteorològics.

Per canviar el mapa: feu clic els botons verds amb una creu de color negre per apropar; al botó verd amb un guió per allunyar la imatge; o en les fletxes verdes per a mapes adjacents.


METAR-TAF: